sensor_id;sensor_type;location;lat;lon;timestamp;P1;durP1;ratioP1;P2;durP2;ratioP2
13847;SDS011;6994;49.752;6.094;2023-12-20T00:02:13;1.02;;;0.82;;
13847;SDS011;6994;49.752;6.094;2023-12-20T00:04:41;1.15;;;1.00;;
13847;SDS011;6994;49.752;6.094;2023-12-20T00:07:08;1.17;;;1.00;;
13847;SDS011;6994;49.752;6.094;2023-12-20T00:09:35;0.77;;;0.77;;
13847;SDS011;6994;49.752;6.094;2023-12-20T00:12:02;1.20;;;0.90;;
13847;SDS011;6994;49.752;6.094;2023-12-20T00:14:29;0.52;;;0.52;;
13847;SDS011;6994;49.752;6.094;2023-12-20T00:16:57;0.62;;;0.62;;
13847;SDS011;6994;49.752;6.094;2023-12-20T00:19:24;4.12;;;0.90;;
13847;SDS011;6994;49.752;6.094;2023-12-20T00:21:51;1.08;;;0.70;;
13847;SDS011;6994;49.752;6.094;2023-12-20T00:24:18;0.70;;;0.60;;
13847;SDS011;6994;49.752;6.094;2023-12-20T00:26:45;1.02;;;0.80;;
13847;SDS011;6994;49.752;6.094;2023-12-20T00:29:13;1.17;;;0.77;;
13847;SDS011;6994;49.752;6.094;2023-12-20T00:31:40;1.25;;;1.12;;
13847;SDS011;6994;49.752;6.094;2023-12-20T00:34:07;1.10;;;1.00;;
13847;SDS011;6994;49.752;6.094;2023-12-20T00:36:34;1.12;;;1.02;;
13847;SDS011;6994;49.752;6.094;2023-12-20T00:39:01;1.00;;;0.90;;
13847;SDS011;6994;49.752;6.094;2023-12-20T00:41:29;1.27;;;0.90;;
13847;SDS011;6994;49.752;6.094;2023-12-20T00:43:56;0.82;;;0.82;;
13847;SDS011;6994;49.752;6.094;2023-12-20T00:46:23;4.43;;;0.90;;
13847;SDS011;6994;49.752;6.094;2023-12-20T00:48:50;4.00;;;1.10;;
13847;SDS011;6994;49.752;6.094;2023-12-20T00:51:17;1.00;;;0.90;;
13847;SDS011;6994;49.752;6.094;2023-12-20T00:53:45;1.45;;;1.20;;
13847;SDS011;6994;49.752;6.094;2023-12-20T00:56:12;0.88;;;0.80;;
13847;SDS011;6994;49.752;6.094;2023-12-20T00:58:39;0.65;;;0.65;;
13847;SDS011;6994;49.752;6.094;2023-12-20T01:01:06;2.33;;;0.70;;
13847;SDS011;6994;49.752;6.094;2023-12-20T01:03:33;1.60;;;1.30;;
13847;SDS011;6994;49.752;6.094;2023-12-20T01:06:01;1.05;;;1.05;;
13847;SDS011;6994;49.752;6.094;2023-12-20T01:08:28;1.48;;;1.37;;
13847;SDS011;6994;49.752;6.094;2023-12-20T01:10:55;1.80;;;1.08;;
13847;SDS011;6994;49.752;6.094;2023-12-20T01:13:22;1.48;;;1.37;;
13847;SDS011;6994;49.752;6.094;2023-12-20T01:15:49;1.02;;;1.02;;
13847;SDS011;6994;49.752;6.094;2023-12-20T01:18:17;1.70;;;1.60;;
13847;SDS011;6994;49.752;6.094;2023-12-20T01:20:44;1.37;;;1.10;;
13847;SDS011;6994;49.752;6.094;2023-12-20T01:23:11;1.58;;;1.48;;
13847;SDS011;6994;49.752;6.094;2023-12-20T01:25:38;1.65;;;1.55;;
13847;SDS011;6994;49.752;6.094;2023-12-20T01:28:05;1.77;;;1.67;;
13847;SDS011;6994;49.752;6.094;2023-12-20T01:30:33;1.85;;;1.25;;
13847;SDS011;6994;49.752;6.094;2023-12-20T01:33:00;1.40;;;1.30;;
13847;SDS011;6994;49.752;6.094;2023-12-20T01:35:27;1.55;;;1.42;;
13847;SDS011;6994;49.752;6.094;2023-12-20T01:37:54;1.77;;;1.65;;
13847;SDS011;6994;49.752;6.094;2023-12-20T01:40:24;2.20;;;1.75;;
13847;SDS011;6994;49.752;6.094;2023-12-20T01:42:58;1.35;;;1.25;;
13847;SDS011;6994;49.752;6.094;2023-12-20T01:45:25;2.43;;;2.23;;
13847;SDS011;6994;49.752;6.094;2023-12-20T01:47:53;2.72;;;2.53;;
13847;SDS011;6994;49.752;6.094;2023-12-20T01:50:20;2.65;;;2.03;;
13847;SDS011;6994;49.752;6.094;2023-12-20T01:52:47;2.70;;;2.50;;
13847;SDS011;6994;49.752;6.094;2023-12-20T01:55:14;2.20;;;2.00;;
13847;SDS011;6994;49.752;6.094;2023-12-20T01:57:41;2.55;;;2.33;;
13847;SDS011;6994;49.752;6.094;2023-12-20T02:00:09;2.35;;;2.00;;
13847;SDS011;6994;49.752;6.094;2023-12-20T02:02:36;3.70;;;3.40;;
13847;SDS011;6994;49.752;6.094;2023-12-20T02:05:03;4.53;;;3.00;;
13847;SDS011;6994;49.752;6.094;2023-12-20T02:07:30;2.70;;;2.42;;
13847;SDS011;6994;49.752;6.094;2023-12-20T02:09:57;2.50;;;2.30;;
13847;SDS011;6994;49.752;6.094;2023-12-20T02:12:24;2.50;;;2.30;;
13847;SDS011;6994;49.752;6.094;2023-12-20T02:14:52;3.35;;;2.62;;
13847;SDS011;6994;49.752;6.094;2023-12-20T02:17:19;2.97;;;2.50;;
13847;SDS011;6994;49.752;6.094;2023-12-20T02:19:46;3.40;;;2.97;;
13847;SDS011;6994;49.752;6.094;2023-12-20T02:22:13;5.18;;;3.80;;
13847;SDS011;6994;49.752;6.094;2023-12-20T02:24:40;3.83;;;3.30;;
13847;SDS011;6994;49.752;6.094;2023-12-20T02:27:08;3.55;;;3.05;;
13847;SDS011;6994;49.752;6.094;2023-12-20T02:29:35;2.60;;;2.40;;
13847;SDS011;6994;49.752;6.094;2023-12-20T02:32:02;4.55;;;2.95;;
13847;SDS011;6994;49.752;6.094;2023-12-20T02:34:29;6.22;;;2.80;;
13847;SDS011;6994;49.752;6.094;2023-12-20T02:36:56;3.00;;;2.70;;
13847;SDS011;6994;49.752;6.094;2023-12-20T02:39:24;5.60;;;2.72;;
13847;SDS011;6994;49.752;6.094;2023-12-20T02:41:51;3.17;;;2.45;;
13847;SDS011;6994;49.752;6.094;2023-12-20T02:44:18;3.55;;;2.70;;
13847;SDS011;6994;49.752;6.094;2023-12-20T02:46:45;3.35;;;3.05;;
13847;SDS011;6994;49.752;6.094;2023-12-20T02:49:12;2.62;;;2.42;;
13847;SDS011;6994;49.752;6.094;2023-12-20T02:51:40;2.87;;;2.53;;
13847;SDS011;6994;49.752;6.094;2023-12-20T02:54:07;4.75;;;2.80;;
13847;SDS011;6994;49.752;6.094;2023-12-20T02:56:35;3.85;;;2.60;;
13847;SDS011;6994;49.752;6.094;2023-12-20T02:59:02;5.32;;;2.62;;
13847;SDS011;6994;49.752;6.094;2023-12-20T03:01:29;5.10;;;2.83;;
13847;SDS011;6994;49.752;6.094;2023-12-20T03:03:57;4.57;;;2.50;;
13847;SDS011;6994;49.752;6.094;2023-12-20T03:06:25;8.65;;;2.17;;
13847;SDS011;6994;49.752;6.094;2023-12-20T03:08:53;6.45;;;2.20;;
13847;SDS011;6994;49.752;6.094;2023-12-20T03:11:21;5.15;;;2.50;;
13847;SDS011;6994;49.752;6.094;2023-12-20T03:13:49;8.38;;;3.00;;
13847;SDS011;6994;49.752;6.094;2023-12-20T03:16:17;3.75;;;1.85;;
13847;SDS011;6994;49.752;6.094;2023-12-20T03:18:44;9.00;;;2.25;;
13847;SDS011;6994;49.752;6.094;2023-12-20T03:21:11;6.78;;;2.20;;
13847;SDS011;6994;49.752;6.094;2023-12-20T03:23:39;8.13;;;1.92;;
13847;SDS011;6994;49.752;6.094;2023-12-20T03:26:09;6.15;;;2.40;;
13847;SDS011;6994;49.752;6.094;2023-12-20T03:28:36;4.30;;;1.85;;
13847;SDS011;6994;49.752;6.094;2023-12-20T03:31:03;3.17;;;1.73;;
13847;SDS011;6994;49.752;6.094;2023-12-20T03:33:31;6.05;;;2.33;;
13847;SDS011;6994;49.752;6.094;2023-12-20T03:35:58;8.55;;;2.40;;
13847;SDS011;6994;49.752;6.094;2023-12-20T03:38:25;4.95;;;1.83;;
13847;SDS011;6994;49.752;6.094;2023-12-20T03:40:52;5.18;;;1.70;;
13847;SDS011;6994;49.752;6.094;2023-12-20T03:43:19;6.18;;;2.55;;
13847;SDS011;6994;49.752;6.094;2023-12-20T03:45:47;3.33;;;2.20;;
13847;SDS011;6994;49.752;6.094;2023-12-20T03:48:14;3.97;;;2.17;;
13847;SDS011;6994;49.752;6.094;2023-12-20T03:50:41;6.65;;;2.17;;
13847;SDS011;6994;49.752;6.094;2023-12-20T03:53:08;6.12;;;2.95;;
13847;SDS011;6994;49.752;6.094;2023-12-20T03:55:35;10.82;;;2.78;;
13847;SDS011;6994;49.752;6.094;2023-12-20T03:58:03;7.65;;;2.75;;
13847;SDS011;6994;49.752;6.094;2023-12-20T04:00:30;6.18;;;2.10;;
13847;SDS011;6994;49.752;6.094;2023-12-20T04:02:58;7.07;;;2.70;;
13847;SDS011;6994;49.752;6.094;2023-12-20T04:05:25;8.10;;;2.95;;
13847;SDS011;6994;49.752;6.094;2023-12-20T04:07:52;4.45;;;1.52;;
13847;SDS011;6994;49.752;6.094;2023-12-20T04:10:19;1.85;;;1.45;;
13847;SDS011;6994;49.752;6.094;2023-12-20T04:12:47;1.87;;;1.42;;
13847;SDS011;6994;49.752;6.094;2023-12-20T04:15:14;5.30;;;1.58;;
13847;SDS011;6994;49.752;6.094;2023-12-20T04:17:41;7.87;;;1.50;;
13847;SDS011;6994;49.752;6.094;2023-12-20T04:20:08;8.18;;;2.53;;
13847;SDS011;6994;49.752;6.094;2023-12-20T04:22:35;9.88;;;2.33;;
13847;SDS011;6994;49.752;6.094;2023-12-20T04:25:03;4.80;;;1.52;;
13847;SDS011;6994;49.752;6.094;2023-12-20T04:27:31;6.60;;;1.92;;
13847;SDS011;6994;49.752;6.094;2023-12-20T04:29:59;2.67;;;1.48;;
13847;SDS011;6994;49.752;6.094;2023-12-20T04:32:27;5.07;;;1.70;;
13847;SDS011;6994;49.752;6.094;2023-12-20T04:34:54;9.02;;;1.58;;
13847;SDS011;6994;49.752;6.094;2023-12-20T04:37:21;6.00;;;1.55;;
13847;SDS011;6994;49.752;6.094;2023-12-20T04:39:48;4.28;;;2.00;;
13847;SDS011;6994;49.752;6.094;2023-12-20T04:42:15;6.10;;;1.65;;
13847;SDS011;6994;49.752;6.094;2023-12-20T04:44:43;7.93;;;1.80;;
13847;SDS011;6994;49.752;6.094;2023-12-20T04:47:13;4.05;;;1.73;;
13847;SDS011;6994;49.752;6.094;2023-12-20T04:49:40;6.00;;;2.05;;
13847;SDS011;6994;49.752;6.094;2023-12-20T04:52:07;7.28;;;1.73;;
13847;SDS011;6994;49.752;6.094;2023-12-20T04:54:34;6.65;;;1.40;;
13847;SDS011;6994;49.752;6.094;2023-12-20T04:57:01;8.95;;;2.47;;
13847;SDS011;6994;49.752;6.094;2023-12-20T04:59:29;8.57;;;1.83;;
13847;SDS011;6994;49.752;6.094;2023-12-20T05:01:56;3.17;;;1.35;;
13847;SDS011;6994;49.752;6.094;2023-12-20T05:04:23;6.43;;;1.70;;
13847;SDS011;6994;49.752;6.094;2023-12-20T05:06:50;4.28;;;2.20;;
13847;SDS011;6994;49.752;6.094;2023-12-20T05:09:17;7.25;;;2.00;;
13847;SDS011;6994;49.752;6.094;2023-12-20T05:11:45;8.07;;;2.70;;
13847;SDS011;6994;49.752;6.094;2023-12-20T05:14:13;7.20;;;2.25;;
13847;SDS011;6994;49.752;6.094;2023-12-20T05:16:40;6.35;;;1.73;;
13847;SDS011;6994;49.752;6.094;2023-12-20T05:19:08;7.53;;;2.15;;
13847;SDS011;6994;49.752;6.094;2023-12-20T05:21:36;6.53;;;2.03;;
13847;SDS011;6994;49.752;6.094;2023-12-20T05:24:03;11.43;;;2.78;;
13847;SDS011;6994;49.752;6.094;2023-12-20T05:26:30;8.40;;;2.05;;
13847;SDS011;6994;49.752;6.094;2023-12-20T05:28:58;9.95;;;2.37;;
13847;SDS011;6994;49.752;6.094;2023-12-20T05:31:26;7.00;;;1.87;;
13847;SDS011;6994;49.752;6.094;2023-12-20T05:33:54;5.05;;;1.95;;
13847;SDS011;6994;49.752;6.094;2023-12-20T05:36:22;6.53;;;2.08;;
13847;SDS011;6994;49.752;6.094;2023-12-20T05:38:50;3.20;;;1.80;;
13847;SDS011;6994;49.752;6.094;2023-12-20T05:41:18;9.05;;;2.72;;
13847;SDS011;6994;49.752;6.094;2023-12-20T05:43:45;8.52;;;2.60;;
13847;SDS011;6994;49.752;6.094;2023-12-20T05:46:12;6.30;;;2.00;;
13847;SDS011;6994;49.752;6.094;2023-12-20T05:48:40;8.35;;;3.20;;
13847;SDS011;6994;49.752;6.094;2023-12-20T05:51:07;8.75;;;2.78;;
13847;SDS011;6994;49.752;6.094;2023-12-20T05:53:34;12.18;;;2.22;;
13847;SDS011;6994;49.752;6.094;2023-12-20T05:56:01;7.80;;;2.30;;
13847;SDS011;6994;49.752;6.094;2023-12-20T05:58:28;8.55;;;2.50;;
13847;SDS011;6994;49.752;6.094;2023-12-20T06:00:56;9.05;;;2.20;;
13847;SDS011;6994;49.752;6.094;2023-12-20T06:03:24;7.35;;;2.08;;
13847;SDS011;6994;49.752;6.094;2023-12-20T06:05:51;11.82;;;2.37;;
13847;SDS011;6994;49.752;6.094;2023-12-20T06:08:18;9.88;;;2.45;;
13847;SDS011;6994;49.752;6.094;2023-12-20T06:10:45;5.05;;;2.17;;
13847;SDS011;6994;49.752;6.094;2023-12-20T06:13:12;8.15;;;2.37;;
13847;SDS011;6994;49.752;6.094;2023-12-20T06:15:40;9.60;;;2.30;;
13847;SDS011;6994;49.752;6.094;2023-12-20T06:18:07;6.62;;;1.92;;
13847;SDS011;6994;49.752;6.094;2023-12-20T06:20:34;5.45;;;2.55;;
13847;SDS011;6994;49.752;6.094;2023-12-20T06:23:01;7.30;;;2.35;;
13847;SDS011;6994;49.752;6.094;2023-12-20T06:25:28;11.88;;;2.20;;
13847;SDS011;6994;49.752;6.094;2023-12-20T06:27:56;6.40;;;2.10;;
13847;SDS011;6994;49.752;6.094;2023-12-20T06:30:23;8.27;;;2.15;;
13847;SDS011;6994;49.752;6.094;2023-12-20T06:32:50;11.93;;;2.22;;
13847;SDS011;6994;49.752;6.094;2023-12-20T06:35:17;10.35;;;2.92;;
13847;SDS011;6994;49.752;6.094;2023-12-20T06:37:45;6.85;;;1.60;;
13847;SDS011;6994;49.752;6.094;2023-12-20T06:40:12;4.45;;;1.83;;
13847;SDS011;6994;49.752;6.094;2023-12-20T06:42:40;9.45;;;2.03;;
13847;SDS011;6994;49.752;6.094;2023-12-20T06:45:08;5.60;;;2.37;;
13847;SDS011;6994;49.752;6.094;2023-12-20T06:47:35;8.23;;;2.45;;
13847;SDS011;6994;49.752;6.094;2023-12-20T06:50:02;8.38;;;3.28;;
13847;SDS011;6994;49.752;6.094;2023-12-20T06:52:29;8.68;;;2.17;;
13847;SDS011;6994;49.752;6.094;2023-12-20T06:54:56;5.70;;;1.90;;
13847;SDS011;6994;49.752;6.094;2023-12-20T06:57:24;5.65;;;2.55;;
13847;SDS011;6994;49.752;6.094;2023-12-20T06:59:51;12.00;;;2.10;;
13847;SDS011;6994;49.752;6.094;2023-12-20T07:02:18;8.07;;;2.70;;
13847;SDS011;6994;49.752;6.094;2023-12-20T07:04:45;7.90;;;1.55;;
13847;SDS011;6994;49.752;6.094;2023-12-20T07:07:12;10.40;;;2.75;;
13847;SDS011;6994;49.752;6.094;2023-12-20T07:09:40;9.27;;;2.40;;
13847;SDS011;6994;49.752;6.094;2023-12-20T07:12:07;7.12;;;2.55;;
13847;SDS011;6994;49.752;6.094;2023-12-20T07:14:34;9.13;;;2.30;;
13847;SDS011;6994;49.752;6.094;2023-12-20T07:17:01;10.38;;;2.75;;
13847;SDS011;6994;49.752;6.094;2023-12-20T07:19:28;11.10;;;2.87;;
13847;SDS011;6994;49.752;6.094;2023-12-20T07:21:56;10.90;;;2.62;;
13847;SDS011;6994;49.752;6.094;2023-12-20T07:24:23;8.85;;;2.47;;
13847;SDS011;6994;49.752;6.094;2023-12-20T07:26:50;7.68;;;2.60;;
13847;SDS011;6994;49.752;6.094;2023-12-20T07:29:17;9.90;;;2.60;;
13847;SDS011;6994;49.752;6.094;2023-12-20T07:31:44;5.25;;;2.33;;
13847;SDS011;6994;49.752;6.094;2023-12-20T07:34:12;9.00;;;2.20;;
13847;SDS011;6994;49.752;6.094;2023-12-20T07:36:39;6.10;;;2.72;;
13847;SDS011;6994;49.752;6.094;2023-12-20T07:39:06;9.65;;;3.00;;
13847;SDS011;6994;49.752;6.094;2023-12-20T07:41:33;6.00;;;2.58;;
13847;SDS011;6994;49.752;6.094;2023-12-20T07:44:00;4.90;;;2.08;;
13847;SDS011;6994;49.752;6.094;2023-12-20T07:46:28;12.63;;;4.18;;
13847;SDS011;6994;49.752;6.094;2023-12-20T07:48:55;11.63;;;3.53;;
13847;SDS011;6994;49.752;6.094;2023-12-20T07:51:22;9.40;;;3.67;;
13847;SDS011;6994;49.752;6.094;2023-12-20T07:53:49;8.77;;;2.85;;
13847;SDS011;6994;49.752;6.094;2023-12-20T07:56:17;8.82;;;3.45;;
13847;SDS011;6994;49.752;6.094;2023-12-20T07:58:44;9.07;;;3.33;;
13847;SDS011;6994;49.752;6.094;2023-12-20T08:01:11;9.18;;;3.75;;
13847;SDS011;6994;49.752;6.094;2023-12-20T08:03:38;11.52;;;3.12;;
13847;SDS011;6994;49.752;6.094;2023-12-20T08:06:05;5.40;;;3.40;;
13847;SDS011;6994;49.752;6.094;2023-12-20T08:08:32;11.35;;;4.00;;
13847;SDS011;6994;49.752;6.094;2023-12-20T08:11:00;7.68;;;3.83;;
13847;SDS011;6994;49.752;6.094;2023-12-20T08:13:27;11.20;;;4.45;;
13847;SDS011;6994;49.752;6.094;2023-12-20T08:15:54;5.65;;;3.62;;
13847;SDS011;6994;49.752;6.094;2023-12-20T08:18:21;15.30;;;4.87;;
13847;SDS011;6994;49.752;6.094;2023-12-20T08:20:48;15.10;;;5.20;;
13847;SDS011;6994;49.752;6.094;2023-12-20T08:23:16;12.15;;;4.55;;
13847;SDS011;6994;49.752;6.094;2023-12-20T08:25:43;9.40;;;3.62;;
13847;SDS011;6994;49.752;6.094;2023-12-20T08:28:10;9.23;;;3.97;;
13847;SDS011;6994;49.752;6.094;2023-12-20T08:30:37;10.07;;;4.30;;
13847;SDS011;6994;49.752;6.094;2023-12-20T08:33:05;10.07;;;3.70;;
13847;SDS011;6994;49.752;6.094;2023-12-20T08:35:32;7.78;;;4.47;;
13847;SDS011;6994;49.752;6.094;2023-12-20T08:37:59;10.10;;;3.78;;
13847;SDS011;6994;49.752;6.094;2023-12-20T08:40:26;8.68;;;4.35;;
13847;SDS011;6994;49.752;6.094;2023-12-20T08:42:53;9.88;;;4.43;;
13847;SDS011;6994;49.752;6.094;2023-12-20T08:45:21;10.15;;;3.92;;
13847;SDS011;6994;49.752;6.094;2023-12-20T08:47:48;12.82;;;4.00;;
13847;SDS011;6994;49.752;6.094;2023-12-20T08:50:16;14.15;;;4.12;;
13847;SDS011;6994;49.752;6.094;2023-12-20T08:52:43;7.22;;;3.60;;
13847;SDS011;6994;49.752;6.094;2023-12-20T08:55:11;5.82;;;3.83;;
13847;SDS011;6994;49.752;6.094;2023-12-20T08:57:38;7.85;;;4.05;;
13847;SDS011;6994;49.752;6.094;2023-12-20T09:00:05;8.20;;;3.47;;
13847;SDS011;6994;49.752;6.094;2023-12-20T09:02:33;12.93;;;3.95;;
13847;SDS011;6994;49.752;6.094;2023-12-20T09:05:00;5.93;;;4.22;;
13847;SDS011;6994;49.752;6.094;2023-12-20T09:07:27;7.78;;;3.28;;
13847;SDS011;6994;49.752;6.094;2023-12-20T09:09:54;10.13;;;3.22;;
13847;SDS011;6994;49.752;6.094;2023-12-20T09:12:22;15.55;;;3.30;;
13847;SDS011;6994;49.752;6.094;2023-12-20T09:14:49;10.98;;;2.35;;
13847;SDS011;6994;49.752;6.094;2023-12-20T09:17:16;7.35;;;3.70;;
13847;SDS011;6994;49.752;6.094;2023-12-20T09:19:43;9.43;;;3.42;;
13847;SDS011;6994;49.752;6.094;2023-12-20T09:22:11;9.40;;;2.70;;
13847;SDS011;6994;49.752;6.094;2023-12-20T09:24:38;7.18;;;2.80;;
13847;SDS011;6994;49.752;6.094;2023-12-20T09:27:07;8.35;;;2.72;;
13847;SDS011;6994;49.752;6.094;2023-12-20T09:29:35;6.10;;;2.45;;
13847;SDS011;6994;49.752;6.094;2023-12-20T09:32:03;10.55;;;2.60;;
13847;SDS011;6994;49.752;6.094;2023-12-20T09:34:30;7.57;;;2.40;;
13847;SDS011;6994;49.752;6.094;2023-12-20T09:36:58;7.07;;;2.40;;
13847;SDS011;6994;49.752;6.094;2023-12-20T09:39:25;5.22;;;2.00;;
13847;SDS011;6994;49.752;6.094;2023-12-20T09:42:02;6.00;;;2.30;;
13847;SDS011;6994;49.752;6.094;2023-12-20T09:44:28;8.38;;;2.03;;
13847;SDS011;6994;49.752;6.094;2023-12-20T09:46:56;7.62;;;2.30;;
13847;SDS011;6994;49.752;6.094;2023-12-20T09:49:23;9.43;;;2.47;;
13847;SDS011;6994;49.752;6.094;2023-12-20T09:51:51;7.43;;;2.75;;
13847;SDS011;6994;49.752;6.094;2023-12-20T09:54:18;11.90;;;2.33;;
13847;SDS011;6994;49.752;6.094;2023-12-20T09:56:45;6.57;;;2.58;;
13847;SDS011;6994;49.752;6.094;2023-12-20T09:59:12;5.22;;;1.90;;
13847;SDS011;6994;49.752;6.094;2023-12-20T10:01:39;10.68;;;2.75;;
13847;SDS011;6994;49.752;6.094;2023-12-20T10:04:08;6.10;;;2.25;;
13847;SDS011;6994;49.752;6.094;2023-12-20T10:06:36;6.32;;;2.40;;
13847;SDS011;6994;49.752;6.094;2023-12-20T10:09:02;4.93;;;2.00;;
13847;SDS011;6994;49.752;6.094;2023-12-20T10:11:30;6.90;;;2.03;;
13847;SDS011;6994;49.752;6.094;2023-12-20T10:14:01;5.97;;;2.30;;
13847;SDS011;6994;49.752;6.094;2023-12-20T10:16:28;10.38;;;2.22;;
13847;SDS011;6994;49.752;6.094;2023-12-20T10:18:55;8.07;;;2.67;;
13847;SDS011;6994;49.752;6.094;2023-12-20T10:21:22;7.20;;;2.37;;
13847;SDS011;6994;49.752;6.094;2023-12-20T10:23:50;6.05;;;1.77;;
13847;SDS011;6994;49.752;6.094;2023-12-20T10:26:20;6.35;;;2.33;;
13847;SDS011;6994;49.752;6.094;2023-12-20T10:28:49;9.13;;;2.28;;
13847;SDS011;6994;49.752;6.094;2023-12-20T10:31:30;3.80;;;1.65;;
13847;SDS011;6994;49.752;6.094;2023-12-20T10:33:59;8.80;;;2.47;;
13847;SDS011;6994;49.752;6.094;2023-12-20T10:36:27;8.43;;;2.62;;
13847;SDS011;6994;49.752;6.094;2023-12-20T10:38:54;7.30;;;2.10;;
13847;SDS011;6994;49.752;6.094;2023-12-20T10:41:24;10.55;;;3.55;;
13847;SDS011;6994;49.752;6.094;2023-12-20T10:43:48;7.22;;;2.28;;
13847;SDS011;6994;49.752;6.094;2023-12-20T10:46:15;7.07;;;2.72;;
13847;SDS011;6994;49.752;6.094;2023-12-20T10:48:42;7.78;;;2.28;;
13847;SDS011;6994;49.752;6.094;2023-12-20T10:51:09;7.28;;;3.05;;
13847;SDS011;6994;49.752;6.094;2023-12-20T10:53:36;7.80;;;2.33;;
13847;SDS011;6994;49.752;6.094;2023-12-20T10:56:04;9.35;;;3.10;;
13847;SDS011;6994;49.752;6.094;2023-12-20T10:58:33;10.07;;;3.35;;
13847;SDS011;6994;49.752;6.094;2023-12-20T11:01:02;5.95;;;2.50;;
13847;SDS011;6994;49.752;6.094;2023-12-20T11:03:25;8.27;;;3.25;;
13847;SDS011;6994;49.752;6.094;2023-12-20T11:05:54;7.60;;;2.85;;
13847;SDS011;6994;49.752;6.094;2023-12-20T11:08:27;12.85;;;3.25;;
13847;SDS011;6994;49.752;6.094;2023-12-20T11:10:59;10.50;;;2.35;;
13847;SDS011;6994;49.752;6.094;2023-12-20T11:13:37;7.70;;;2.12;;
13847;SDS011;6994;49.752;6.094;2023-12-20T11:16:03;7.65;;;2.08;;
13847;SDS011;6994;49.752;6.094;2023-12-20T11:18:31;8.13;;;2.80;;
13847;SDS011;6994;49.752;6.094;2023-12-20T11:21:02;8.48;;;2.35;;
13847;SDS011;6994;49.752;6.094;2023-12-20T11:23:32;5.07;;;1.37;;
13847;SDS011;6994;49.752;6.094;2023-12-20T11:25:59;6.20;;;1.62;;
13847;SDS011;6994;49.752;6.094;2023-12-20T11:28:26;5.10;;;2.03;;
13847;SDS011;6994;49.752;6.094;2023-12-20T11:30:53;6.40;;;1.80;;
13847;SDS011;6994;49.752;6.094;2023-12-20T11:33:23;5.28;;;1.70;;
13847;SDS011;6994;49.752;6.094;2023-12-20T11:35:50;6.03;;;2.20;;
13847;SDS011;6994;49.752;6.094;2023-12-20T11:38:20;9.85;;;2.85;;
13847;SDS011;6994;49.752;6.094;2023-12-20T11:40:44;11.07;;;2.25;;
13847;SDS011;6994;49.752;6.094;2023-12-20T11:43:12;8.32;;;1.67;;
13847;SDS011;6994;49.752;6.094;2023-12-20T11:45:39;5.18;;;1.73;;
13847;SDS011;6994;49.752;6.094;2023-12-20T11:48:06;7.03;;;2.25;;
13847;SDS011;6994;49.752;6.094;2023-12-20T11:50:33;12.05;;;2.17;;
13847;SDS011;6994;49.752;6.094;2023-12-20T11:53:01;7.50;;;2.78;;
13847;SDS011;6994;49.752;6.094;2023-12-20T11:55:29;4.62;;;2.47;;
13847;SDS011;6994;49.752;6.094;2023-12-20T11:57:56;10.07;;;2.67;;
13847;SDS011;6994;49.752;6.094;2023-12-20T12:00:24;3.15;;;1.58;;
13847;SDS011;6994;49.752;6.094;2023-12-20T12:02:58;7.03;;;2.03;;
13847;SDS011;6994;49.752;6.094;2023-12-20T12:05:22;5.70;;;1.90;;
13847;SDS011;6994;49.752;6.094;2023-12-20T12:07:49;9.88;;;2.92;;
13847;SDS011;6994;49.752;6.094;2023-12-20T12:10:16;4.35;;;2.30;;
13847;SDS011;6994;49.752;6.094;2023-12-20T12:12:43;8.35;;;2.67;;
13847;SDS011;6994;49.752;6.094;2023-12-20T12:15:11;8.10;;;2.65;;
13847;SDS011;6994;49.752;6.094;2023-12-20T12:17:38;6.60;;;1.80;;
13847;SDS011;6994;49.752;6.094;2023-12-20T12:20:05;5.75;;;2.15;;
13847;SDS011;6994;49.752;6.094;2023-12-20T12:22:32;12.45;;;2.75;;
13847;SDS011;6994;49.752;6.094;2023-12-20T12:25:05;7.95;;;2.28;;
13847;SDS011;6994;49.752;6.094;2023-12-20T12:27:27;9.60;;;2.03;;
13847;SDS011;6994;49.752;6.094;2023-12-20T12:30:04;9.73;;;3.25;;
13847;SDS011;6994;49.752;6.094;2023-12-20T12:32:31;6.90;;;2.83;;
13847;SDS011;6994;49.752;6.094;2023-12-20T12:34:59;5.72;;;2.90;;
13847;SDS011;6994;49.752;6.094;2023-12-20T12:37:26;10.45;;;2.62;;
13847;SDS011;6994;49.752;6.094;2023-12-20T12:39:54;7.72;;;2.28;;
13847;SDS011;6994;49.752;6.094;2023-12-20T12:42:21;6.37;;;2.00;;
13847;SDS011;6994;49.752;6.094;2023-12-20T12:44:49;7.18;;;2.08;;
13847;SDS011;6994;49.752;6.094;2023-12-20T12:47:17;7.15;;;1.92;;
13847;SDS011;6994;49.752;6.094;2023-12-20T12:49:44;11.80;;;2.90;;
13847;SDS011;6994;49.752;6.094;2023-12-20T12:52:12;4.70;;;1.90;;
13847;SDS011;6994;49.752;6.094;2023-12-20T12:54:38;7.75;;;2.37;;
13847;SDS011;6994;49.752;6.094;2023-12-20T12:57:05;3.37;;;1.92;;
13847;SDS011;6994;49.752;6.094;2023-12-20T12:59:33;7.72;;;3.20;;
13847;SDS011;6994;49.752;6.094;2023-12-20T13:02:00;17.60;;;2.42;;
13847;SDS011;6994;49.752;6.094;2023-12-20T13:04:27;4.03;;;1.83;;
13847;SDS011;6994;49.752;6.094;2023-12-20T13:06:54;4.75;;;1.58;;
13847;SDS011;6994;49.752;6.094;2023-12-20T13:09:21;7.37;;;2.12;;
13847;SDS011;6994;49.752;6.094;2023-12-20T13:11:49;7.60;;;2.62;;
13847;SDS011;6994;49.752;6.094;2023-12-20T13:14:16;8.70;;;2.55;;
13847;SDS011;6994;49.752;6.094;2023-12-20T13:16:43;7.45;;;2.10;;
13847;SDS011;6994;49.752;6.094;2023-12-20T13:19:10;8.85;;;2.58;;
13847;SDS011;6994;49.752;6.094;2023-12-20T13:21:37;6.70;;;2.10;;
13847;SDS011;6994;49.752;6.094;2023-12-20T13:24:05;6.07;;;2.53;;
13847;SDS011;6994;49.752;6.094;2023-12-20T13:26:32;11.80;;;2.50;;
13847;SDS011;6994;49.752;6.094;2023-12-20T13:28:59;7.85;;;2.53;;
13847;SDS011;6994;49.752;6.094;2023-12-20T13:31:26;6.50;;;3.00;;
13847;SDS011;6994;49.752;6.094;2023-12-20T13:33:53;5.43;;;1.95;;
13847;SDS011;6994;49.752;6.094;2023-12-20T13:36:21;10.32;;;2.83;;
13847;SDS011;6994;49.752;6.094;2023-12-20T13:38:48;5.93;;;2.42;;
13847;SDS011;6994;49.752;6.094;2023-12-20T13:41:15;7.82;;;2.53;;
13847;SDS011;6994;49.752;6.094;2023-12-20T13:43:42;10.02;;;3.05;;
13847;SDS011;6994;49.752;6.094;2023-12-20T13:46:09;8.77;;;2.20;;
13847;SDS011;6994;49.752;6.094;2023-12-20T13:48:37;11.23;;;4.35;;
13847;SDS011;6994;49.752;6.094;2023-12-20T13:51:04;8.35;;;2.42;;
13847;SDS011;6994;49.752;6.094;2023-12-20T13:53:31;7.82;;;2.28;;
13847;SDS011;6994;49.752;6.094;2023-12-20T13:55:58;5.97;;;2.17;;
13847;SDS011;6994;49.752;6.094;2023-12-20T13:58:26;7.40;;;1.80;;
13847;SDS011;6994;49.752;6.094;2023-12-20T14:00:53;10.88;;;3.28;;
13847;SDS011;6994;49.752;6.094;2023-12-20T14:03:20;10.00;;;2.72;;
13847;SDS011;6994;49.752;6.094;2023-12-20T14:05:48;7.15;;;1.90;;
13847;SDS011;6994;49.752;6.094;2023-12-20T14:08:15;9.32;;;2.15;;
13847;SDS011;6994;49.752;6.094;2023-12-20T14:10:42;12.45;;;2.67;;
13847;SDS011;6994;49.752;6.094;2023-12-20T14:13:10;6.15;;;2.40;;
13847;SDS011;6994;49.752;6.094;2023-12-20T14:15:37;13.60;;;2.80;;
13847;SDS011;6994;49.752;6.094;2023-12-20T14:18:05;9.75;;;2.30;;
13847;SDS011;6994;49.752;6.094;2023-12-20T14:20:32;10.18;;;2.22;;
13847;SDS011;6994;49.752;6.094;2023-12-20T14:22:59;7.90;;;2.30;;
13847;SDS011;6994;49.752;6.094;2023-12-20T14:25:26;13.02;;;2.55;;
13847;SDS011;6994;49.752;6.094;2023-12-20T14:27:54;9.02;;;2.12;;
13847;SDS011;6994;49.752;6.094;2023-12-20T14:30:22;5.05;;;1.50;;
13847;SDS011;6994;49.752;6.094;2023-12-20T14:32:49;11.12;;;2.37;;
13847;SDS011;6994;49.752;6.094;2023-12-20T14:35:17;9.10;;;2.28;;
13847;SDS011;6994;49.752;6.094;2023-12-20T14:37:44;7.93;;;2.35;;
13847;SDS011;6994;49.752;6.094;2023-12-20T14:40:11;7.03;;;2.20;;
13847;SDS011;6994;49.752;6.094;2023-12-20T14:42:41;8.13;;;2.28;;
13847;SDS011;6994;49.752;6.094;2023-12-20T14:45:12;8.00;;;2.33;;
13847;SDS011;6994;49.752;6.094;2023-12-20T14:47:42;8.07;;;2.35;;
13847;SDS011;6994;49.752;6.094;2023-12-20T14:50:09;7.62;;;1.80;;
13847;SDS011;6994;49.752;6.094;2023-12-20T14:52:36;8.25;;;2.10;;
13847;SDS011;6994;49.752;6.094;2023-12-20T14:55:03;8.55;;;1.52;;
13847;SDS011;6994;49.752;6.094;2023-12-20T14:57:31;9.95;;;2.40;;
13847;SDS011;6994;49.752;6.094;2023-12-20T14:59:58;6.50;;;2.17;;
13847;SDS011;6994;49.752;6.094;2023-12-20T15:02:25;10.20;;;2.33;;